createdAt,value
2022-10-26T00:02:06.005Z,96557.59
2022-10-26T00:07:08.461Z,96571.41
2022-10-26T00:12:10.675Z,96591.66
2022-10-26T00:17:12.701Z,96594.75
2022-10-26T00:22:14.873Z,96568.50
2022-10-26T00:27:17.151Z,96585.22
2022-10-26T00:32:19.644Z,96581.44
2022-10-26T00:37:21.688Z,96574.66
2022-10-26T00:42:24.722Z,96585.81
2022-10-26T00:47:47.337Z,96582.19
2022-10-26T00:52:51.398Z,96577.19
2022-10-26T00:57:54.518Z,96572.34
2022-10-26T01:03:00.330Z,96572.94
2022-10-26T01:08:03.750Z,96583.38
2022-10-26T01:13:06.953Z,96565.59
2022-10-26T01:18:29.488Z,96584.06
2022-10-26T01:23:38.504Z,96606.19
2022-10-26T01:29:18.018Z,96595.59
2022-10-26T01:34:55.695Z,96604.94
2022-10-26T01:40:09.701Z,96571.06
2022-10-26T01:45:15.166Z,96568.69
2022-10-26T01:50:20.077Z,96575.50
2022-10-26T01:55:51.692Z,96567.97
2022-10-26T02:01:06.302Z,96572.16
2022-10-26T02:06:21.974Z,96575.19
2022-10-26T02:11:43.147Z,96565.81
2022-10-26T02:17:11.064Z,96571.84
2022-10-26T02:22:27.896Z,96575.31
2022-10-26T02:27:34.838Z,96564.97
2022-10-26T02:32:44.265Z,96570.22
2022-10-26T02:37:48.996Z,96569.69
2022-10-26T02:42:53.393Z,96576.16
2022-10-26T02:47:56.434Z,96568.66
2022-10-26T02:53:03.641Z,96580.38
2022-10-26T02:58:12.512Z,96582.31
2022-10-26T03:03:15.759Z,96592.31
2022-10-26T03:08:18.024Z,96592.72
2022-10-26T03:13:20.333Z,96602.75
2022-10-26T03:18:22.425Z,96610.91
2022-10-26T03:23:24.516Z,96615.22
2022-10-26T03:28:26.904Z,96622.75
2022-10-26T03:33:29.273Z,96639.66
2022-10-26T03:38:31.392Z,96635.22
2022-10-26T03:43:33.444Z,96655.88
2022-10-26T03:48:35.458Z,96647.00
2022-10-26T03:53:37.643Z,96644.28
2022-10-26T03:58:39.868Z,96643.41
2022-10-26T04:03:42.087Z,96642.31
2022-10-26T04:08:44.160Z,96659.50
2022-10-26T04:13:48.220Z,96656.41
2022-10-26T04:18:50.398Z,96660.50
2022-10-26T04:23:52.572Z,96664.63
2022-10-26T04:28:54.773Z,96669.38
2022-10-26T04:33:56.934Z,96673.81
2022-10-26T04:38:59.050Z,96667.03
2022-10-26T04:44:01.313Z,96673.41
2022-10-26T04:49:03.509Z,96664.69
2022-10-26T04:54:05.605Z,96684.75
2022-10-26T04:59:07.643Z,96693.66
2022-10-26T05:04:09.902Z,96699.41
2022-10-26T05:09:11.937Z,96694.75
2022-10-26T05:14:14.906Z,96704.78
2022-10-26T05:19:17.285Z,96713.78
2022-10-26T05:24:19.964Z,96716.13
2022-10-26T05:29:22.046Z,96709.19
2022-10-26T05:34:24.069Z,96718.09
2022-10-26T05:39:26.244Z,96733.88
2022-10-26T05:44:28.322Z,96722.78
2022-10-26T05:49:30.370Z,96710.19
2022-10-26T05:54:32.561Z,96714.16
2022-10-26T05:59:35.193Z,96722.59
2022-10-26T06:04:43.493Z,96730.41
2022-10-26T06:09:46.421Z,96724.75
2022-10-26T06:14:49.054Z,96717.00
2022-10-26T06:20:19.161Z,96740.31
2022-10-26T06:25:45.917Z,96728.88
2022-10-26T06:30:48.324Z,96735.31
2022-10-26T06:36:08.812Z,96731.66
2022-10-26T06:41:19.126Z,96712.03
2022-10-26T06:46:44.261Z,96701.38
2022-10-26T06:52:04.615Z,96704.28
2022-10-26T06:57:09.208Z,96706.66
2022-10-26T07:02:17.625Z,96709.53
2022-10-26T07:07:29.499Z,96707.84
2022-10-26T07:12:33.007Z,96711.34
2022-10-26T07:17:49.481Z,96711.19
2022-10-26T07:22:56.340Z,96709.06
2022-10-26T07:27:59.683Z,96719.50
2022-10-26T07:33:12.938Z,96720.25
2022-10-26T07:38:15.226Z,96705.66
2022-10-26T07:43:17.469Z,96720.84
2022-10-26T07:48:19.851Z,96731.41
2022-10-26T07:53:27.520Z,96707.47
2022-10-26T07:58:30.571Z,96696.69
2022-10-26T08:03:32.594Z,96699.03
2022-10-26T08:08:34.966Z,96703.03
2022-10-26T08:13:37.171Z,96688.81
2022-10-26T08:18:39.390Z,96690.03
2022-10-26T08:23:41.798Z,96694.38
2022-10-26T08:28:43.809Z,96687.97
2022-10-26T08:33:46.108Z,96684.56
2022-10-26T08:38:49.194Z,96692.72
2022-10-26T08:43:59.160Z,96696.44
2022-10-26T08:49:19.528Z,96701.06
2022-10-26T08:54:45.338Z,96714.25
2022-10-26T08:59:54.712Z,96698.69
2022-10-26T09:05:02.379Z,96698.88
2022-10-26T09:10:41.015Z,96709.81
2022-10-26T09:16:12.342Z,96711.63
2022-10-26T09:21:23.663Z,96704.16
2022-10-26T09:26:34.830Z,96703.94
2022-10-26T09:31:43.495Z,96705.69
2022-10-26T09:36:46.239Z,96698.16
2022-10-26T09:42:02.213Z,96700.34
2022-10-26T09:47:22.184Z,96706.19
2022-10-26T09:52:24.470Z,96704.50
2022-10-26T09:57:26.969Z,96709.84
2022-10-26T10:02:45.196Z,96703.69
2022-10-26T10:07:47.678Z,96700.47
2022-10-26T10:12:52.821Z,96695.88
2022-10-26T10:17:58.622Z,96690.94
2022-10-26T10:23:04.007Z,96687.78
2022-10-26T10:28:27.920Z,96682.72
2022-10-26T10:33:36.433Z,96687.19
2022-10-26T10:38:44.921Z,96672.16
2022-10-26T10:43:50.485Z,96672.72
2022-10-26T10:49:02.110Z,96671.78
2022-10-26T10:54:06.155Z,96670.94
2022-10-26T10:59:26.651Z,96661.44
2022-10-26T11:04:39.708Z,96662.75
2022-10-26T11:09:46.419Z,96654.25
2022-10-26T11:14:55.884Z,96662.44
2022-10-26T11:20:03.049Z,96660.19
2022-10-26T11:25:47.934Z,96660.19
2022-10-26T11:30:57.937Z,96645.31
2022-10-26T11:36:10.195Z,96663.38
2022-10-26T11:41:22.876Z,96639.97
2022-10-26T11:46:32.814Z,96654.44
2022-10-26T11:51:56.209Z,96660.13
2022-10-26T11:57:00.008Z,96650.13
2022-10-26T12:02:06.538Z,96654.94
2022-10-26T12:07:16.505Z,96646.31
2022-10-26T12:12:51.041Z,96651.88
2022-10-26T12:18:00.329Z,96637.59
2022-10-26T12:23:04.576Z,96651.97
2022-10-26T12:28:35.550Z,96647.44
2022-10-26T12:33:50.514Z,96647.44
2022-10-26T12:38:57.849Z,96653.13
2022-10-26T12:44:24.070Z,96642.00
2022-10-26T12:50:05.322Z,96656.44
2022-10-26T12:55:32.379Z,96662.16
2022-10-26T13:00:41.764Z,96659.66
2022-10-26T13:06:11.847Z,96654.59
2022-10-26T13:11:21.443Z,96648.50
2022-10-26T13:16:26.163Z,96662.00
2022-10-26T13:21:28.683Z,96653.78
2022-10-26T13:26:32.811Z,96667.81
2022-10-26T13:31:36.560Z,96670.63
2022-10-26T13:36:44.318Z,96665.91
2022-10-26T13:41:49.558Z,96669.03
2022-10-26T13:46:57.089Z,96675.22
2022-10-26T13:52:03.673Z,96680.63
2022-10-26T13:57:31.840Z,96680.03
2022-10-26T14:02:34.151Z,96679.63
2022-10-26T14:07:50.377Z,96693.13
2022-10-26T14:12:55.366Z,96680.63
2022-10-26T14:18:00.331Z,96693.44
2022-10-26T14:23:02.649Z,96693.09
2022-10-26T14:28:21.734Z,96695.69
2022-10-26T14:33:29.172Z,96680.47
2022-10-26T14:38:41.947Z,96713.44
2022-10-26T14:43:46.028Z,96716.00
2022-10-26T14:48:59.722Z,96734.34
2022-10-26T14:54:04.151Z,96738.34
2022-10-26T14:59:26.155Z,96745.84
2022-10-26T15:04:30.317Z,96732.53
2022-10-26T15:09:43.886Z,96745.66
2022-10-26T15:14:50.473Z,96746.72
2022-10-26T15:19:53.826Z,96750.19
2022-10-26T15:24:58.813Z,96765.09
2022-10-26T15:30:24.670Z,96765.97
2022-10-26T15:35:31.551Z,96783.94
2022-10-26T15:40:34.070Z,96784.13
2022-10-26T15:45:45.915Z,96819.75
2022-10-26T15:50:48.063Z,96808.47
2022-10-26T15:55:53.044Z,96823.00
2022-10-26T16:00:55.315Z,96836.47
2022-10-26T16:06:00.938Z,96833.00
2022-10-26T16:11:03.010Z,96851.09
2022-10-26T16:16:05.516Z,96849.09
2022-10-26T16:21:14.584Z,96867.84
2022-10-26T16:26:17.199Z,96864.84
2022-10-26T16:31:21.274Z,96865.66
2022-10-26T16:36:23.445Z,96883.72
2022-10-26T16:46:28.006Z,96893.25
2022-10-26T16:51:30.399Z,96905.03
2022-10-26T16:56:32.457Z,96908.84
2022-10-26T17:01:36.005Z,96901.31
2022-10-26T17:06:42.065Z,96899.59
2022-10-26T17:11:47.326Z,96877.03
2022-10-26T17:16:49.580Z,96923.31
2022-10-26T17:21:54.400Z,96929.25
2022-10-26T17:26:56.901Z,96950.84
2022-10-26T17:31:59.137Z,96947.78
2022-10-26T17:37:01.305Z,96951.41
2022-10-26T17:42:03.973Z,96928.25
2022-10-26T17:47:06.187Z,96957.25
2022-10-26T17:52:08.292Z,96960.72
2022-10-26T17:57:10.685Z,96967.81
2022-10-26T18:02:12.881Z,96945.44
2022-10-26T18:07:15.250Z,96947.50
2022-10-26T18:12:17.646Z,96956.22
2022-10-26T18:17:19.834Z,96976.16
2022-10-26T18:22:21.987Z,96969.00
2022-10-26T18:27:24.190Z,96988.56
2022-10-26T18:32:26.384Z,96992.91
2022-10-26T18:37:28.424Z,96997.25
2022-10-26T18:42:30.528Z,97000.91
2022-10-26T18:47:33.517Z,97026.94
2022-10-26T18:52:35.735Z,97006.91
2022-10-26T18:57:37.833Z,97010.97
2022-10-26T19:02:39.846Z,97031.13
2022-10-26T19:07:42.170Z,97041.66
2022-10-26T19:12:44.248Z,97029.78
2022-10-26T19:17:46.261Z,97032.09
2022-10-26T19:22:49.044Z,97026.28
2022-10-26T19:27:52.666Z,97035.38
2022-10-26T19:32:54.948Z,97043.66
2022-10-26T19:37:57.084Z,97040.22
2022-10-26T19:42:59.261Z,97052.50
2022-10-26T19:48:01.385Z,97057.69
2022-10-26T19:53:03.641Z,97069.78
2022-10-26T19:58:05.833Z,97079.44
2022-10-26T20:03:11.065Z,97089.47
2022-10-26T20:08:17.006Z,97083.47
2022-10-26T20:13:32.719Z,97084.25
2022-10-26T20:18:35.982Z,97079.78
2022-10-26T20:23:38.358Z,97096.97
2022-10-26T20:39:37.528Z,97097.94
2022-10-26T20:44:43.650Z,97090.16
2022-10-26T20:49:46.281Z,97111.31
2022-10-26T20:55:08.903Z,97113.31
2022-10-26T21:00:12.237Z,97073.25
2022-10-26T21:05:14.844Z,97117.66
2022-10-26T21:10:16.924Z,97108.81
2022-10-26T21:15:19.014Z,97098.47
2022-10-26T21:20:21.209Z,97115.22
2022-10-26T21:25:23.422Z,97111.28
2022-10-26T21:30:26.245Z,97116.13
2022-10-26T21:35:28.446Z,97094.63
2022-10-26T21:40:30.866Z,97112.13
2022-10-26T21:45:33.185Z,97095.75
2022-10-26T21:50:35.563Z,97114.28
2022-10-26T21:55:37.668Z,97098.34
2022-10-26T22:00:40.029Z,97125.00
2022-10-26T22:05:45.086Z,97102.69
2022-10-26T22:10:48.258Z,97079.16
2022-10-26T22:16:01.192Z,97119.13
2022-10-26T22:21:04.475Z,97119.81
2022-10-26T22:26:10.573Z,97134.19
2022-10-26T22:31:16.406Z,97131.19
2022-10-26T22:36:18.925Z,97138.72
2022-10-26T22:41:22.776Z,97104.75
2022-10-26T22:46:28.423Z,97151.94
2022-10-26T22:51:33.553Z,97144.28
2022-10-26T22:56:36.767Z,97143.03
2022-10-26T23:01:41.102Z,97150.19
2022-10-26T23:06:43.518Z,97132.88
2022-10-26T23:11:45.593Z,97133.91
2022-10-26T23:16:47.650Z,97132.16
2022-10-26T23:21:49.860Z,97133.44
2022-10-26T23:26:51.977Z,97155.78
2022-10-26T23:31:54.006Z,97142.16
2022-10-26T23:36:56.250Z,97137.47
2022-10-26T23:41:58.464Z,97156.84
2022-10-26T23:47:00.518Z,97157.00
2022-10-26T23:52:02.801Z,97133.75
2022-10-26T23:57:05.003Z,97157.00
